Wetterverlauf

Letzte Wetterlage 23.08.2014 14:30
Wetterdiagramm
Tabellarische Darstellung
Datum Temperatur Windchill Feuchte Luftdruck Windrichtung Windstärke Niederschlag
23.08.2014 14:45 14,3 °C 14,3 °C 78 % 1013,4 hPa 319 0.0 0,00 mm
23.08.2014 14:30 17,1 °C 17,1 °C 69 % 1013,3 hPa 262 0.5 0,00 mm
23.08.2014 14:10 18,6 °C 18,6 °C 74 % 1012,6 hPa 135 0.0 1,20 mm
23.08.2014 14:00 18,6 °C 18,6 °C 74 % 1012,7 hPa 100 0.0 0,00 mm
23.08.2014 13:45 19,8 °C 19,8 °C 75 % 1012,7 hPa 242 0.0 0,00 mm
23.08.2014 13:30 18,3 °C 18,3 °C 84 % 1012,9 hPa 141 0.0 0,00 mm
23.08.2014 13:10 15,0 °C 15,0 °C 91 % 1013,1 hPa 135 0.0 1,20 mm
23.08.2014 13:00 15,1 °C 15,1 °C 91 % 1013,2 hPa 129 0.0 1,20 mm
23.08.2014 12:45 14,8 °C 14,8 °C 91 % 1013,3 hPa 66 0.0 1,20 mm
23.08.2014 12:30 14,7 °C 14,7 °C 91 % 1013,2 hPa 90 0.0 1,20 mm
23.08.2014 12:10 13,9 °C 13,9 °C 88 % 1013,5 hPa 45 0.0 1,20 mm
23.08.2014 12:00 14,4 °C 14,4 °C 85 % 1013,5 hPa 50 0.0 0,30 mm
23.08.2014 11:45 15,7 °C 15,7 °C 80 % 1013,6 hPa 29 0.0 0,00 mm
23.08.2014 11:30 16,7 °C 16,7 °C 76 % 1013,5 hPa 63 0.0 0,00 mm
23.08.2014 11:10 17,0 °C 17,0 °C 79 % 1013,6 hPa 45 0.0 0,00 mm
23.08.2014 11:00 16,1 °C 16,1 °C 79 % 1013,6 hPa 87 0.0 0,00 mm
23.08.2014 10:45 16,3 °C 16,3 °C 79 % 1013,5 hPa 109 0.0 0,00 mm
23.08.2014 10:30 16,5 °C 16,5 °C 78 % 1013,5 hPa 21 0.0 0,00 mm
23.08.2014 10:10 16,0 °C 16,0 °C 79 % 1013,5 hPa 45 0.0 0,00 mm
23.08.2014 10:00 16,2 °C 16,2 °C 79 % 1013,4 hPa 359 0.0 0,00 mm
23.08.2014 09:45 16,2 °C 16,2 °C 78 % 1013,4 hPa 35 0.0 0,00 mm
23.08.2014 09:30 16,2 °C 16,2 °C 82 % 1013,3 hPa 339 0.0 0,00 mm
23.08.2014 09:10 15,2 °C 15,2 °C 84 % 1013,5 hPa 180 0.0 0,00 mm
23.08.2014 09:00 14,9 °C 14,9 °C 87 % 1013,4 hPa 312 0.0 0,00 mm
23.08.2014 08:45 13,7 °C 13,7 °C 90 % 1013,3 hPa 195 0.0 0,00 mm
Empfehlen Sie wetter.com
| Mehr
Neue Wetterwarnung

Neue Niederschlagsmeldung
Neue Meldung
Regen Liveticker
    sehr starker Regen/Gewitter
    starker Regen/Gewitter
    mäßiger bis starker Regen
    mäßiger Regen
    leichter bis mäßiger Regen
    kein Regen